sensor_id;sensor_type;location;lat;lon;timestamp;P1;durP1;ratioP1;P2;durP2;ratioP2
58294;SDS011;45705;55.592;37.460;2022-10-31T00:00:54;3.75;;;0.68;;
58294;SDS011;45705;55.592;37.460;2022-10-31T00:03:20;0.93;;;0.63;;
58294;SDS011;45705;55.592;37.460;2022-10-31T00:05:46;1.40;;;0.73;;
58294;SDS011;45705;55.592;37.460;2022-10-31T00:08:13;0.80;;;0.60;;
58294;SDS011;45705;55.592;37.460;2022-10-31T00:10:40;0.60;;;0.60;;
58294;SDS011;45705;55.592;37.460;2022-10-31T00:13:07;0.60;;;0.50;;
58294;SDS011;45705;55.592;37.460;2022-10-31T00:15:35;2.03;;;0.63;;
58294;SDS011;45705;55.592;37.460;2022-10-31T00:18:02;1.67;;;0.80;;
58294;SDS011;45705;55.592;37.460;2022-10-31T00:20:28;0.90;;;0.60;;
58294;SDS011;45705;55.592;37.460;2022-10-31T00:22:58;1.58;;;0.70;;
58294;SDS011;45705;55.592;37.460;2022-10-31T00:25:25;1.30;;;0.80;;
58294;SDS011;45705;55.592;37.460;2022-10-31T00:27:51;0.70;;;0.70;;
58294;SDS011;45705;55.592;37.460;2022-10-31T00:30:17;1.20;;;0.70;;
58294;SDS011;45705;55.592;37.460;2022-10-31T00:32:43;3.33;;;0.70;;
58294;SDS011;45705;55.592;37.460;2022-10-31T00:35:08;3.03;;;0.77;;
58294;SDS011;45705;55.592;37.460;2022-10-31T00:37:34;1.40;;;0.70;;
58294;SDS011;45705;55.592;37.460;2022-10-31T00:40:00;1.50;;;0.73;;
58294;SDS011;45705;55.592;37.460;2022-10-31T00:42:25;3.22;;;0.68;;
58294;SDS011;45705;55.592;37.460;2022-10-31T00:44:51;1.85;;;0.57;;
58294;SDS011;45705;55.592;37.460;2022-10-31T00:47:19;1.85;;;0.60;;
58294;SDS011;45705;55.592;37.460;2022-10-31T00:49:45;0.60;;;0.50;;
58294;SDS011;45705;55.592;37.460;2022-10-31T00:52:11;1.80;;;0.80;;
58294;SDS011;45705;55.592;37.460;2022-10-31T00:54:36;0.65;;;0.60;;
58294;SDS011;45705;55.592;37.460;2022-10-31T00:57:02;1.23;;;0.57;;
58294;SDS011;45705;55.592;37.460;2022-10-31T00:59:28;0.80;;;0.70;;
58294;SDS011;45705;55.592;37.460;2022-10-31T01:01:54;3.63;;;0.85;;
58294;SDS011;45705;55.592;37.460;2022-10-31T01:04:20;2.25;;;0.70;;
58294;SDS011;45705;55.592;37.460;2022-10-31T01:06:48;1.58;;;0.82;;
58294;SDS011;45705;55.592;37.460;2022-10-31T01:09:15;1.92;;;0.90;;
58294;SDS011;45705;55.592;37.460;2022-10-31T01:11:41;1.63;;;0.70;;
58294;SDS011;45705;55.592;37.460;2022-10-31T01:14:08;1.85;;;0.77;;
58294;SDS011;45705;55.592;37.460;2022-10-31T01:16:34;1.33;;;0.80;;
58294;SDS011;45705;55.592;37.460;2022-10-31T01:19:00;1.20;;;0.70;;
58294;SDS011;45705;55.592;37.460;2022-10-31T01:21:27;2.25;;;0.68;;
58294;SDS011;45705;55.592;37.460;2022-10-31T01:23:57;0.93;;;0.43;;
58294;SDS011;45705;55.592;37.460;2022-10-31T01:26:28;0.70;;;0.70;;
58294;SDS011;45705;55.592;37.460;2022-10-31T01:31:23;2.22;;;0.90;;
58294;SDS011;45705;55.592;37.460;2022-10-31T01:33:51;1.55;;;0.80;;
58294;SDS011;45705;55.592;37.460;2022-10-31T01:36:21;4.40;;;0.90;;
58294;SDS011;45705;55.592;37.460;2022-10-31T01:38:53;2.85;;;0.70;;
58294;SDS011;45705;55.592;37.460;2022-10-31T01:41:22;0.60;;;0.60;;
58294;SDS011;45705;55.592;37.460;2022-10-31T01:44:01;0.80;;;0.60;;
58294;SDS011;45705;55.592;37.460;2022-10-31T01:46:50;7.13;;;1.45;;
58294;SDS011;45705;55.592;37.460;2022-10-31T01:49:40;1.30;;;0.63;;
58294;SDS011;45705;55.592;37.460;2022-10-31T01:52:12;1.92;;;0.75;;
58294;SDS011;45705;55.592;37.460;2022-10-31T01:54:43;1.10;;;0.45;;
58294;SDS011;45705;55.592;37.460;2022-10-31T01:57:12;1.50;;;0.60;;
58294;SDS011;45705;55.592;37.460;2022-10-31T01:59:43;1.02;;;0.70;;
58294;SDS011;45705;55.592;37.460;2022-10-31T02:02:15;1.15;;;0.57;;
58294;SDS011;45705;55.592;37.460;2022-10-31T02:07:13;0.95;;;0.70;;
58294;SDS011;45705;55.592;37.460;2022-10-31T02:09:41;0.85;;;0.57;;
58294;SDS011;45705;55.592;37.460;2022-10-31T02:12:09;2.35;;;0.80;;
58294;SDS011;45705;55.592;37.460;2022-10-31T02:14:36;1.42;;;0.60;;
58294;SDS011;45705;55.592;37.460;2022-10-31T02:17:03;1.42;;;0.73;;
58294;SDS011;45705;55.592;37.460;2022-10-31T02:22:23;1.13;;;0.68;;
58294;SDS011;45705;55.592;37.460;2022-10-31T02:27:32;1.27;;;1.00;;
58294;SDS011;45705;55.592;37.460;2022-10-31T02:30:05;2.67;;;0.80;;
58294;SDS011;45705;55.592;37.460;2022-10-31T02:37:52;1.20;;;0.80;;
58294;SDS011;45705;55.592;37.460;2022-10-31T02:40:46;1.85;;;0.90;;
58294;SDS011;45705;55.592;37.460;2022-10-31T02:43:40;2.95;;;0.90;;
58294;SDS011;45705;55.592;37.460;2022-10-31T02:49:09;2.17;;;0.93;;
58294;SDS011;45705;55.592;37.460;2022-10-31T02:51:41;0.95;;;0.90;;
58294;SDS011;45705;55.592;37.460;2022-10-31T02:54:19;1.33;;;0.68;;
58294;SDS011;45705;55.592;37.460;2022-10-31T02:56:51;1.55;;;1.00;;
58294;SDS011;45705;55.592;37.460;2022-10-31T02:59:22;2.30;;;0.75;;
58294;SDS011;45705;55.592;37.460;2022-10-31T03:14:40;1.17;;;0.77;;
58294;SDS011;45705;55.592;37.460;2022-10-31T03:17:11;1.15;;;0.70;;
58294;SDS011;45705;55.592;37.460;2022-10-31T03:19:46;1.30;;;0.70;;
58294;SDS011;45705;55.592;37.460;2022-10-31T03:22:21;1.65;;;0.93;;
58294;SDS011;45705;55.592;37.460;2022-10-31T03:24:51;3.00;;;0.80;;
58294;SDS011;45705;55.592;37.460;2022-10-31T03:27:24;0.70;;;0.70;;
58294;SDS011;45705;55.592;37.460;2022-10-31T03:29:53;4.25;;;0.90;;
58294;SDS011;45705;55.592;37.460;2022-10-31T03:32:23;2.22;;;0.80;;
58294;SDS011;45705;55.592;37.460;2022-10-31T03:34:56;2.50;;;0.80;;
58294;SDS011;45705;55.592;37.460;2022-10-31T03:39:52;2.17;;;0.90;;
58294;SDS011;45705;55.592;37.460;2022-10-31T03:42:24;3.00;;;0.90;;
58294;SDS011;45705;55.592;37.460;2022-10-31T03:44:53;6.18;;;0.93;;
58294;SDS011;45705;55.592;37.460;2022-10-31T03:47:42;1.50;;;0.90;;
58294;SDS011;45705;55.592;37.460;2022-10-31T03:50:09;1.40;;;1.02;;
58294;SDS011;45705;55.592;37.460;2022-10-31T03:55:19;1.08;;;0.68;;
58294;SDS011;45705;55.592;37.460;2022-10-31T04:00:18;0.90;;;0.80;;
58294;SDS011;45705;55.592;37.460;2022-10-31T04:05:28;4.13;;;1.02;;
58294;SDS011;45705;55.592;37.460;2022-10-31T04:07:59;2.50;;;0.70;;
58294;SDS011;45705;55.592;37.460;2022-10-31T04:10:30;1.73;;;0.85;;
58294;SDS011;45705;55.592;37.460;2022-10-31T04:13:01;2.70;;;1.42;;
58294;SDS011;45705;55.592;37.460;2022-10-31T04:15:37;2.90;;;1.02;;
58294;SDS011;45705;55.592;37.460;2022-10-31T04:18:05;1.67;;;0.88;;
58294;SDS011;45705;55.592;37.460;2022-10-31T04:20:38;8.73;;;1.17;;
58294;SDS011;45705;55.592;37.460;2022-10-31T04:23:20;3.30;;;0.95;;
58294;SDS011;45705;55.592;37.460;2022-10-31T04:25:49;3.78;;;0.80;;
58294;SDS011;45705;55.592;37.460;2022-10-31T04:28:16;3.25;;;0.80;;
58294;SDS011;45705;55.592;37.460;2022-10-31T04:30:42;1.95;;;1.00;;
58294;SDS011;45705;55.592;37.460;2022-10-31T04:33:08;1.75;;;0.60;;
58294;SDS011;45705;55.592;37.460;2022-10-31T04:35:35;0.93;;;0.73;;
58294;SDS011;45705;55.592;37.460;2022-10-31T04:38:01;3.78;;;0.80;;
58294;SDS011;45705;55.592;37.460;2022-10-31T04:40:27;2.65;;;0.85;;
58294;SDS011;45705;55.592;37.460;2022-10-31T04:43:22;1.48;;;0.80;;
58294;SDS011;45705;55.592;37.460;2022-10-31T04:45:48;2.45;;;1.20;;
58294;SDS011;45705;55.592;37.460;2022-10-31T04:48:14;2.42;;;0.90;;
58294;SDS011;45705;55.592;37.460;2022-10-31T04:50:42;2.78;;;0.80;;
58294;SDS011;45705;55.592;37.460;2022-10-31T04:53:08;2.63;;;1.05;;
58294;SDS011;45705;55.592;37.460;2022-10-31T04:55:43;2.13;;;0.90;;
58294;SDS011;45705;55.592;37.460;2022-10-31T04:58:18;3.47;;;0.85;;
58294;SDS011;45705;55.592;37.460;2022-10-31T05:00:44;2.10;;;1.10;;
58294;SDS011;45705;55.592;37.460;2022-10-31T05:03:11;0.80;;;0.80;;
58294;SDS011;45705;55.592;37.460;2022-10-31T05:05:37;2.00;;;0.90;;
58294;SDS011;45705;55.592;37.460;2022-10-31T05:08:02;1.27;;;0.80;;
58294;SDS011;45705;55.592;37.460;2022-10-31T05:10:30;3.20;;;0.80;;
58294;SDS011;45705;55.592;37.460;2022-10-31T05:12:59;3.47;;;0.75;;
58294;SDS011;45705;55.592;37.460;2022-10-31T05:15:45;1.92;;;1.00;;
58294;SDS011;45705;55.592;37.460;2022-10-31T05:18:20;1.60;;;0.90;;
58294;SDS011;45705;55.592;37.460;2022-10-31T05:21:04;2.75;;;1.05;;
58294;SDS011;45705;55.592;37.460;2022-10-31T05:23:34;1.60;;;0.82;;
58294;SDS011;45705;55.592;37.460;2022-10-31T05:26:00;2.67;;;0.77;;
58294;SDS011;45705;55.592;37.460;2022-10-31T05:28:26;2.75;;;0.80;;
58294;SDS011;45705;55.592;37.460;2022-10-31T05:30:53;4.28;;;0.93;;
58294;SDS011;45705;55.592;37.460;2022-10-31T05:33:20;2.30;;;1.08;;
58294;SDS011;45705;55.592;37.460;2022-10-31T05:36:04;3.30;;;0.90;;
58294;SDS011;45705;55.592;37.460;2022-10-31T05:38:30;3.75;;;1.42;;
58294;SDS011;45705;55.592;37.460;2022-10-31T05:41:01;1.92;;;1.10;;
58294;SDS011;45705;55.592;37.460;2022-10-31T05:43:29;2.37;;;1.20;;
58294;SDS011;45705;55.592;37.460;2022-10-31T05:45:55;3.80;;;1.35;;
58294;SDS011;45705;55.592;37.460;2022-10-31T05:49:00;1.55;;;1.05;;
58294;SDS011;45705;55.592;37.460;2022-10-31T05:51:44;1.00;;;0.70;;
58294;SDS011;45705;55.592;37.460;2022-10-31T05:54:10;3.78;;;1.10;;
58294;SDS011;45705;55.592;37.460;2022-10-31T05:56:38;1.33;;;1.00;;
58294;SDS011;45705;55.592;37.460;2022-10-31T05:59:04;3.75;;;1.05;;
58294;SDS011;45705;55.592;37.460;2022-10-31T06:01:30;2.75;;;1.10;;
58294;SDS011;45705;55.592;37.460;2022-10-31T06:04:00;2.40;;;1.10;;
58294;SDS011;45705;55.592;37.460;2022-10-31T06:06:26;3.28;;;1.35;;
58294;SDS011;45705;55.592;37.460;2022-10-31T06:08:51;3.95;;;1.40;;
58294;SDS011;45705;55.592;37.460;2022-10-31T06:11:20;3.45;;;1.20;;
58294;SDS011;45705;55.592;37.460;2022-10-31T06:14:01;2.70;;;1.30;;
58294;SDS011;45705;55.592;37.460;2022-10-31T06:16:50;2.72;;;1.35;;
58294;SDS011;45705;55.592;37.460;2022-10-31T06:19:34;3.85;;;1.67;;
58294;SDS011;45705;55.592;37.460;2022-10-31T06:21:59;4.35;;;1.27;;
58294;SDS011;45705;55.592;37.460;2022-10-31T06:24:25;2.65;;;1.30;;
58294;SDS011;45705;55.592;37.460;2022-10-31T06:27:15;3.03;;;1.50;;
58294;SDS011;45705;55.592;37.460;2022-10-31T06:29:41;3.38;;;1.70;;
58294;SDS011;45705;55.592;37.460;2022-10-31T06:32:11;2.15;;;1.35;;
58294;SDS011;45705;55.592;37.460;2022-10-31T06:34:41;3.50;;;1.70;;
58294;SDS011;45705;55.592;37.460;2022-10-31T06:37:09;3.15;;;1.52;;
58294;SDS011;45705;55.592;37.460;2022-10-31T06:39:38;2.13;;;1.75;;
58294;SDS011;45705;55.592;37.460;2022-10-31T06:42:04;2.20;;;1.63;;
58294;SDS011;45705;55.592;37.460;2022-10-31T06:44:30;2.78;;;1.92;;
58294;SDS011;45705;55.592;37.460;2022-10-31T06:47:22;9.77;;;1.77;;
58294;SDS011;45705;55.592;37.460;2022-10-31T06:50:04;4.07;;;1.70;;
58294;SDS011;45705;55.592;37.460;2022-10-31T06:52:31;3.03;;;1.00;;
58294;SDS011;45705;55.592;37.460;2022-10-31T06:54:56;3.83;;;1.50;;
58294;SDS011;45705;55.592;37.460;2022-10-31T06:57:22;4.45;;;1.55;;
58294;SDS011;45705;55.592;37.460;2022-10-31T06:59:48;4.15;;;1.40;;
58294;SDS011;45705;55.592;37.460;2022-10-31T07:02:32;3.15;;;1.58;;
58294;SDS011;45705;55.592;37.460;2022-10-31T07:04:59;6.47;;;1.95;;
58294;SDS011;45705;55.592;37.460;2022-10-31T07:07:25;3.70;;;1.80;;
58294;SDS011;45705;55.592;37.460;2022-10-31T07:09:52;3.42;;;2.00;;
58294;SDS011;45705;55.592;37.460;2022-10-31T07:12:23;3.28;;;1.63;;
58294;SDS011;45705;55.592;37.460;2022-10-31T07:14:57;4.90;;;1.80;;
58294;SDS011;45705;55.592;37.460;2022-10-31T07:17:23;5.82;;;2.00;;
58294;SDS011;45705;55.592;37.460;2022-10-31T07:19:53;5.28;;;1.67;;
58294;SDS011;45705;55.592;37.460;2022-10-31T07:22:18;10.73;;;2.13;;
58294;SDS011;45705;55.592;37.460;2022-10-31T07:24:44;8.82;;;2.00;;
58294;SDS011;45705;55.592;37.460;2022-10-31T07:27:13;3.70;;;1.77;;
58294;SDS011;45705;55.592;37.460;2022-10-31T07:29:38;3.08;;;1.73;;
58294;SDS011;45705;55.592;37.460;2022-10-31T07:32:04;3.33;;;1.77;;
58294;SDS011;45705;55.592;37.460;2022-10-31T07:34:31;2.45;;;1.50;;
58294;SDS011;45705;55.592;37.460;2022-10-31T07:37:17;2.20;;;2.00;;
58294;SDS011;45705;55.592;37.460;2022-10-31T07:39:43;5.82;;;2.28;;
58294;SDS011;45705;55.592;37.460;2022-10-31T07:42:09;7.28;;;3.00;;
58294;SDS011;45705;55.592;37.460;2022-10-31T07:44:36;6.70;;;2.83;;
58294;SDS011;45705;55.592;37.460;2022-10-31T07:47:20;10.18;;;2.38;;
58294;SDS011;45705;55.592;37.460;2022-10-31T07:50:05;3.47;;;2.58;;
58294;SDS011;45705;55.592;37.460;2022-10-31T07:53:04;2.95;;;2.05;;
58294;SDS011;45705;55.592;37.460;2022-10-31T07:55:50;6.45;;;1.85;;
58294;SDS011;45705;55.592;37.460;2022-10-31T07:58:17;8.90;;;1.90;;
58294;SDS011;45705;55.592;37.460;2022-10-31T08:00:45;12.35;;;2.67;;
58294;SDS011;45705;55.592;37.460;2022-10-31T08:03:16;17.40;;;2.33;;
58294;SDS011;45705;55.592;37.460;2022-10-31T08:06:01;7.45;;;2.53;;
58294;SDS011;45705;55.592;37.460;2022-10-31T08:08:27;7.55;;;1.73;;
58294;SDS011;45705;55.592;37.460;2022-10-31T08:10:54;19.55;;;2.10;;
58294;SDS011;45705;55.592;37.460;2022-10-31T08:13:20;4.38;;;2.15;;
58294;SDS011;45705;55.592;37.460;2022-10-31T08:15:49;3.17;;;1.40;;
58294;SDS011;45705;55.592;37.460;2022-10-31T08:18:21;2.58;;;1.58;;
58294;SDS011;45705;55.592;37.460;2022-10-31T08:20:49;4.82;;;2.20;;
58294;SDS011;45705;55.592;37.460;2022-10-31T08:23:15;3.42;;;1.98;;
58294;SDS011;45705;55.592;37.460;2022-10-31T08:25:42;2.00;;;1.70;;
58294;SDS011;45705;55.592;37.460;2022-10-31T08:28:08;2.30;;;1.50;;
58294;SDS011;45705;55.592;37.460;2022-10-31T08:30:37;2.85;;;1.70;;
58294;SDS011;45705;55.592;37.460;2022-10-31T08:33:21;11.95;;;1.77;;
58294;SDS011;45705;55.592;37.460;2022-10-31T08:36:05;11.00;;;1.40;;
58294;SDS011;45705;55.592;37.460;2022-10-31T08:39:00;6.55;;;1.50;;
58294;SDS011;45705;55.592;37.460;2022-10-31T08:41:27;5.60;;;1.92;;
58294;SDS011;45705;55.592;37.460;2022-10-31T08:43:53;2.10;;;1.30;;
58294;SDS011;45705;55.592;37.460;2022-10-31T08:46:19;3.00;;;1.80;;
58294;SDS011;45705;55.592;37.460;2022-10-31T08:48:49;4.88;;;1.33;;
58294;SDS011;45705;55.592;37.460;2022-10-31T08:51:17;3.20;;;1.55;;
58294;SDS011;45705;55.592;37.460;2022-10-31T08:53:43;2.85;;;2.38;;
58294;SDS011;45705;55.592;37.460;2022-10-31T08:56:28;2.90;;;1.90;;
58294;SDS011;45705;55.592;37.460;2022-10-31T08:58:54;5.72;;;2.83;;
58294;SDS011;45705;55.592;37.460;2022-10-31T09:01:29;5.30;;;2.25;;
58294;SDS011;45705;55.592;37.460;2022-10-31T09:03:55;4.22;;;2.50;;
58294;SDS011;45705;55.592;37.460;2022-10-31T09:06:21;6.95;;;2.92;;
58294;SDS011;45705;55.592;37.460;2022-10-31T09:08:47;2.63;;;1.90;;
58294;SDS011;45705;55.592;37.460;2022-10-31T09:11:13;2.53;;;1.70;;
58294;SDS011;45705;55.592;37.460;2022-10-31T09:13:57;2.50;;;1.92;;
58294;SDS011;45705;55.592;37.460;2022-10-31T09:16:38;7.38;;;2.15;;
58294;SDS011;45705;55.592;37.460;2022-10-31T09:19:07;3.28;;;2.08;;
58294;SDS011;45705;55.592;37.460;2022-10-31T09:21:32;2.42;;;1.20;;
58294;SDS011;45705;55.592;37.460;2022-10-31T09:23:58;2.25;;;1.55;;
58294;SDS011;45705;55.592;37.460;2022-10-31T09:26:24;3.00;;;1.90;;
58294;SDS011;45705;55.592;37.460;2022-10-31T09:29:10;3.50;;;1.90;;
58294;SDS011;45705;55.592;37.460;2022-10-31T09:31:38;4.72;;;1.95;;
58294;SDS011;45705;55.592;37.460;2022-10-31T09:34:24;2.47;;;1.75;;
58294;SDS011;45705;55.592;37.460;2022-10-31T09:37:02;1.95;;;1.40;;
58294;SDS011;45705;55.592;37.460;2022-10-31T09:39:28;2.67;;;1.70;;
58294;SDS011;45705;55.592;37.460;2022-10-31T09:45:06;3.17;;;1.58;;
58294;SDS011;45705;55.592;37.460;2022-10-31T09:47:46;2.05;;;1.70;;
58294;SDS011;45705;55.592;37.460;2022-10-31T09:50:45;2.55;;;1.88;;
58294;SDS011;45705;55.592;37.460;2022-10-31T09:56:02;2.83;;;1.60;;
58294;SDS011;45705;55.592;37.460;2022-10-31T09:58:34;1.65;;;1.05;;
58294;SDS011;45705;55.592;37.460;2022-10-31T10:01:09;2.40;;;1.50;;
58294;SDS011;45705;55.592;37.460;2022-10-31T10:06:53;2.13;;;1.30;;
58294;SDS011;45705;55.592;37.460;2022-10-31T10:09:41;9.30;;;3.92;;
58294;SDS011;45705;55.592;37.460;2022-10-31T10:21:36;3.53;;;1.33;;
58294;SDS011;45705;55.592;37.460;2022-10-31T10:29:50;0.80;;;0.80;;
58294;SDS011;45705;55.592;37.460;2022-10-31T10:32:19;1.20;;;1.10;;
58294;SDS011;45705;55.592;37.460;2022-10-31T10:34:53;1.05;;;0.82;;
58294;SDS011;45705;55.592;37.460;2022-10-31T10:37:44;0.80;;;0.80;;
58294;SDS011;45705;55.592;37.460;2022-10-31T10:40:16;0.70;;;0.60;;
58294;SDS011;45705;55.592;37.460;2022-10-31T10:48:59;3.80;;;0.90;;
58294;SDS011;45705;55.592;37.460;2022-10-31T10:51:47;1.33;;;0.60;;
58294;SDS011;45705;55.592;37.460;2022-10-31T10:59:55;2.85;;;0.90;;
58294;SDS011;45705;55.592;37.460;2022-10-31T11:02:29;3.70;;;0.80;;
58294;SDS011;45705;55.592;37.460;2022-10-31T11:04:58;0.60;;;0.60;;
58294;SDS011;45705;55.592;37.460;2022-10-31T11:07:36;0.77;;;0.70;;
58294;SDS011;45705;55.592;37.460;2022-10-31T11:10:11;1.23;;;0.80;;
58294;SDS011;45705;55.592;37.460;2022-10-31T11:12:39;0.95;;;0.63;;
58294;SDS011;45705;55.592;37.460;2022-10-31T11:15:27;1.92;;;1.27;;
58294;SDS011;45705;55.592;37.460;2022-10-31T11:17:54;1.42;;;0.95;;
58294;SDS011;45705;55.592;37.460;2022-10-31T11:20:26;2.50;;;0.90;;
58294;SDS011;45705;55.592;37.460;2022-10-31T11:23:15;1.65;;;0.80;;
58294;SDS011;45705;55.592;37.460;2022-10-31T11:25:49;1.65;;;1.02;;
58294;SDS011;45705;55.592;37.460;2022-10-31T11:28:16;1.60;;;1.20;;
58294;SDS011;45705;55.592;37.460;2022-10-31T11:30:43;1.10;;;0.93;;
58294;SDS011;45705;55.592;37.460;2022-10-31T11:33:16;1.90;;;0.70;;
58294;SDS011;45705;55.592;37.460;2022-10-31T11:35:48;1.48;;;0.80;;
58294;SDS011;45705;55.592;37.460;2022-10-31T11:38:18;1.10;;;1.00;;
58294;SDS011;45705;55.592;37.460;2022-10-31T11:40:52;1.80;;;1.13;;
58294;SDS011;45705;55.592;37.460;2022-10-31T11:43:18;3.40;;;0.98;;
58294;SDS011;45705;55.592;37.460;2022-10-31T11:45:44;1.73;;;0.90;;
58294;SDS011;45705;55.592;37.460;2022-10-31T11:48:17;0.75;;;0.50;;
58294;SDS011;45705;55.592;37.460;2022-10-31T11:50:49;0.88;;;0.80;;
58294;SDS011;45705;55.592;37.460;2022-10-31T11:53:28;3.15;;;1.10;;
58294;SDS011;45705;55.592;37.460;2022-10-31T11:58:41;0.88;;;0.73;;
58294;SDS011;45705;55.592;37.460;2022-10-31T12:01:20;2.00;;;0.77;;
58294;SDS011;45705;55.592;37.460;2022-10-31T12:04:07;4.03;;;0.95;;
58294;SDS011;45705;55.592;37.460;2022-10-31T12:06:36;1.33;;;0.95;;
58294;SDS011;45705;55.592;37.460;2022-10-31T12:22:29;2.25;;;0.70;;
58294;SDS011;45705;55.592;37.460;2022-10-31T12:27:45;1.58;;;1.20;;
58294;SDS011;45705;55.592;37.460;2022-10-31T12:47:22;3.13;;;1.48;;
58294;SDS011;45705;55.592;37.460;2022-10-31T12:50:20;2.08;;;1.50;;
58294;SDS011;45705;55.592;37.460;2022-10-31T12:58:36;1.67;;;1.30;;
58294;SDS011;45705;55.592;37.460;2022-10-31T13:01:15;1.83;;;1.25;;
58294;SDS011;45705;55.592;37.460;2022-10-31T13:06:13;5.20;;;2.33;;
58294;SDS011;45705;55.592;37.460;2022-10-31T13:08:46;3.42;;;2.10;;
58294;SDS011;45705;55.592;37.460;2022-10-31T13:11:17;3.60;;;1.95;;
58294;SDS011;45705;55.592;37.460;2022-10-31T13:16:34;3.88;;;1.27;;
58294;SDS011;45705;55.592;37.460;2022-10-31T13:21:41;3.58;;;2.08;;
58294;SDS011;45705;55.592;37.460;2022-10-31T13:24:15;1.35;;;1.20;;
58294;SDS011;45705;55.592;37.460;2022-10-31T13:26:49;5.68;;;1.83;;
58294;SDS011;45705;55.592;37.460;2022-10-31T13:32:00;3.55;;;2.20;;
58294;SDS011;45705;55.592;37.460;2022-10-31T13:34:34;4.60;;;1.90;;
58294;SDS011;45705;55.592;37.460;2022-10-31T13:37:15;2.08;;;1.45;;
58294;SDS011;45705;55.592;37.460;2022-10-31T13:40:06;1.33;;;1.05;;
58294;SDS011;45705;55.592;37.460;2022-10-31T13:42:55;3.58;;;1.80;;
58294;SDS011;45705;55.592;37.460;2022-10-31T13:45:31;2.05;;;1.38;;
58294;SDS011;45705;55.592;37.460;2022-10-31T13:48:00;1.98;;;1.40;;
58294;SDS011;45705;55.592;37.460;2022-10-31T13:50:56;1.40;;;1.30;;
58294;SDS011;45705;55.592;37.460;2022-10-31T13:56:17;1.70;;;1.20;;
58294;SDS011;45705;55.592;37.460;2022-10-31T14:01:58;2.53;;;1.45;;
58294;SDS011;45705;55.592;37.460;2022-10-31T14:04:37;1.92;;;1.00;;
58294;SDS011;45705;55.592;37.460;2022-10-31T14:12:39;4.72;;;1.55;;
58294;SDS011;45705;55.592;37.460;2022-10-31T14:15:16;1.88;;;1.20;;
58294;SDS011;45705;55.592;37.460;2022-10-31T14:20:25;3.55;;;1.20;;
58294;SDS011;45705;55.592;37.460;2022-10-31T14:28:42;1.70;;;1.30;;
58294;SDS011;45705;55.592;37.460;2022-10-31T14:31:29;3.47;;;1.63;;
58294;SDS011;45705;55.592;37.460;2022-10-31T14:36:42;2.30;;;1.35;;
58294;SDS011;45705;55.592;37.460;2022-10-31T14:51:20;4.68;;;1.55;;
58294;SDS011;45705;55.592;37.460;2022-10-31T14:53:54;2.15;;;1.30;;
58294;SDS011;45705;55.592;37.460;2022-10-31T14:56:31;2.17;;;1.48;;
58294;SDS011;45705;55.592;37.460;2022-10-31T14:59:01;3.20;;;1.63;;
58294;SDS011;45705;55.592;37.460;2022-10-31T15:01:58;2.38;;;1.60;;
58294;SDS011;45705;55.592;37.460;2022-10-31T15:04:29;2.67;;;1.55;;
58294;SDS011;45705;55.592;37.460;2022-10-31T15:07:19;3.75;;;1.95;;
58294;SDS011;45705;55.592;37.460;2022-10-31T15:09:57;2.50;;;1.55;;
58294;SDS011;45705;55.592;37.460;2022-10-31T15:12:29;3.58;;;1.88;;
58294;SDS011;45705;55.592;37.460;2022-10-31T15:15:17;2.10;;;1.58;;
58294;SDS011;45705;55.592;37.460;2022-10-31T15:17:53;3.53;;;1.80;;
58294;SDS011;45705;55.592;37.460;2022-10-31T15:20:27;2.90;;;1.95;;
58294;SDS011;45705;55.592;37.460;2022-10-31T15:22:55;2.88;;;1.60;;
58294;SDS011;45705;55.592;37.460;2022-10-31T15:25:23;2.17;;;1.52;;
58294;SDS011;45705;55.592;37.460;2022-10-31T15:27:51;2.97;;;1.60;;
58294;SDS011;45705;55.592;37.460;2022-10-31T15:30:19;3.08;;;2.05;;
58294;SDS011;45705;55.592;37.460;2022-10-31T15:32:47;3.38;;;2.10;;
58294;SDS011;45705;55.592;37.460;2022-10-31T15:35:25;2.03;;;1.52;;
58294;SDS011;45705;55.592;37.460;2022-10-31T15:37:53;2.10;;;1.70;;
58294;SDS011;45705;55.592;37.460;2022-10-31T15:40:20;2.45;;;1.70;;
58294;SDS011;45705;55.592;37.460;2022-10-31T15:43:10;4.03;;;1.92;;
58294;SDS011;45705;55.592;37.460;2022-10-31T15:45:41;2.00;;;1.45;;
58294;SDS011;45705;55.592;37.460;2022-10-31T15:48:17;2.00;;;1.42;;
58294;SDS011;45705;55.592;37.460;2022-10-31T15:50:55;1.65;;;1.15;;
58294;SDS011;45705;55.592;37.460;2022-10-31T15:58:39;1.55;;;1.30;;
58294;SDS011;45705;55.592;37.460;2022-10-31T16:06:26;2.65;;;2.00;;
58294;SDS011;45705;55.592;37.460;2022-10-31T16:08:52;3.50;;;1.55;;
58294;SDS011;45705;55.592;37.460;2022-10-31T16:11:27;3.42;;;1.70;;
58294;SDS011;45705;55.592;37.460;2022-10-31T16:16:48;2.13;;;1.50;;
58294;SDS011;45705;55.592;37.460;2022-10-31T16:21:43;5.25;;;2.53;;
58294;SDS011;45705;55.592;37.460;2022-10-31T16:24:16;7.53;;;1.73;;
58294;SDS011;45705;55.592;37.460;2022-10-31T16:26:49;6.25;;;1.90;;
58294;SDS011;45705;55.592;37.460;2022-10-31T16:29:28;2.38;;;1.60;;
58294;SDS011;45705;55.592;37.460;2022-10-31T16:32:00;1.65;;;1.20;;
58294;SDS011;45705;55.592;37.460;2022-10-31T16:34:26;2.17;;;1.10;;
58294;SDS011;45705;55.592;37.460;2022-10-31T16:36:52;3.35;;;1.80;;
58294;SDS011;45705;55.592;37.460;2022-10-31T16:39:17;3.47;;;1.45;;
58294;SDS011;45705;55.592;37.460;2022-10-31T16:41:44;2.38;;;1.40;;
58294;SDS011;45705;55.592;37.460;2022-10-31T16:44:19;1.20;;;1.00;;
58294;SDS011;45705;55.592;37.460;2022-10-31T16:46:46;2.58;;;1.50;;
58294;SDS011;45705;55.592;37.460;2022-10-31T16:49:12;1.85;;;1.23;;
58294;SDS011;45705;55.592;37.460;2022-10-31T16:51:38;5.55;;;1.40;;
58294;SDS011;45705;55.592;37.460;2022-10-31T16:54:03;1.90;;;1.20;;
58294;SDS011;45705;55.592;37.460;2022-10-31T16:56:30;1.02;;;0.90;;
58294;SDS011;45705;55.592;37.460;2022-10-31T16:58:59;4.35;;;1.38;;
58294;SDS011;45705;55.592;37.460;2022-10-31T17:01:28;1.45;;;0.90;;
58294;SDS011;45705;55.592;37.460;2022-10-31T17:03:54;1.67;;;1.20;;
58294;SDS011;45705;55.592;37.460;2022-10-31T17:06:20;2.28;;;1.35;;
58294;SDS011;45705;55.592;37.460;2022-10-31T17:08:46;3.10;;;1.23;;
58294;SDS011;45705;55.592;37.460;2022-10-31T17:11:14;2.55;;;1.15;;
58294;SDS011;45705;55.592;37.460;2022-10-31T17:13:43;1.30;;;1.17;;
58294;SDS011;45705;55.592;37.460;2022-10-31T17:16:08;3.25;;;1.33;;
58294;SDS011;45705;55.592;37.460;2022-10-31T17:18:37;3.13;;;1.45;;
58294;SDS011;45705;55.592;37.460;2022-10-31T17:21:03;3.03;;;1.75;;
58294;SDS011;45705;55.592;37.460;2022-10-31T17:23:30;3.13;;;1.60;;
58294;SDS011;45705;55.592;37.460;2022-10-31T17:25:57;3.15;;;1.63;;
58294;SDS011;45705;55.592;37.460;2022-10-31T17:28:24;4.55;;;0.93;;
58294;SDS011;45705;55.592;37.460;2022-10-31T17:30:53;7.93;;;1.40;;
58294;SDS011;45705;55.592;37.460;2022-10-31T17:33:20;1.08;;;0.90;;
58294;SDS011;45705;55.592;37.460;2022-10-31T17:35:46;2.92;;;1.20;;
58294;SDS011;45705;55.592;37.460;2022-10-31T17:38:12;10.05;;;1.20;;
58294;SDS011;45705;55.592;37.460;2022-10-31T17:40:38;1.70;;;1.00;;
58294;SDS011;45705;55.592;37.460;2022-10-31T17:43:05;2.28;;;1.10;;
58294;SDS011;45705;55.592;37.460;2022-10-31T17:45:31;2.50;;;1.30;;
58294;SDS011;45705;55.592;37.460;2022-10-31T17:47:57;1.17;;;0.98;;
58294;SDS011;45705;55.592;37.460;2022-10-31T17:50:23;3.88;;;1.60;;
58294;SDS011;45705;55.592;37.460;2022-10-31T17:52:51;1.85;;;1.00;;
58294;SDS011;45705;55.592;37.460;2022-10-31T17:55:17;3.17;;;1.42;;
58294;SDS011;45705;55.592;37.460;2022-10-31T17:57:44;4.90;;;2.20;;
58294;SDS011;45705;55.592;37.460;2022-10-31T18:00:11;2.50;;;1.60;;